createdAt,value
2023-05-10T00:01:52.004Z,95230.50
2023-05-10T00:04:18.983Z,95243.81
2023-05-10T00:06:46.164Z,95239.53
2023-05-10T00:09:13.224Z,95237.13
2023-05-10T00:11:40.270Z,95237.31
2023-05-10T00:14:07.114Z,95232.94
2023-05-10T00:16:34.258Z,95232.84
2023-05-10T00:19:01.148Z,95236.75
2023-05-10T00:21:29.378Z,95230.13
2023-05-10T00:23:56.286Z,95230.13
2023-05-10T00:26:23.173Z,95232.34
2023-05-10T00:28:54.625Z,95233.38
2023-05-10T00:31:21.871Z,95224.91
2023-05-10T00:33:49.022Z,95231.38
2023-05-10T00:36:15.911Z,95230.59
2023-05-10T00:38:42.836Z,95226.41
2023-05-10T00:41:09.840Z,95230.25
2023-05-10T00:43:38.882Z,95213.34
2023-05-10T00:46:06.150Z,95220.66
2023-05-10T00:48:33.255Z,95217.84
2023-05-10T00:51:01.730Z,95215.69
2023-05-10T00:53:28.770Z,95211.03
2023-05-10T00:55:55.832Z,95218.88
2023-05-10T00:58:24.285Z,95220.19
2023-05-10T01:00:53.253Z,95218.78
2023-05-10T01:03:20.461Z,95212.75
2023-05-10T01:05:48.784Z,95209.50
2023-05-10T01:08:15.695Z,95214.06
2023-05-10T01:10:43.979Z,95211.50
2023-05-10T01:13:11.161Z,95195.16
2023-05-10T01:15:38.671Z,95209.88
2023-05-10T01:18:05.851Z,95210.69
2023-05-10T01:20:41.535Z,95207.69
2023-05-10T01:23:17.999Z,95204.91
2023-05-10T01:26:25.102Z,95199.78
2023-05-10T01:29:17.424Z,95192.50
2023-05-10T01:32:08.949Z,95195.63
2023-05-10T01:34:45.332Z,95197.25
2023-05-10T01:37:20.765Z,95190.97
2023-05-10T01:40:01.354Z,95188.69
2023-05-10T01:42:41.974Z,95187.72
2023-05-10T01:45:35.003Z,95187.25
2023-05-10T01:48:08.277Z,95180.06
2023-05-10T01:50:37.629Z,95189.75
2023-05-10T01:53:09.012Z,95189.41
2023-05-10T01:55:43.997Z,95177.97
2023-05-10T01:58:18.247Z,95173.44
2023-05-10T02:00:48.473Z,95198.00
2023-05-10T02:03:17.296Z,95184.00
2023-05-10T02:05:47.077Z,95179.94
2023-05-10T02:08:15.649Z,95188.25
2023-05-10T02:10:43.868Z,95188.34
2023-05-10T02:13:12.567Z,95188.25
2023-05-10T02:15:41.586Z,95197.06
2023-05-10T02:18:10.240Z,95180.69
2023-05-10T02:20:39.003Z,95200.56
2023-05-10T02:23:08.342Z,95184.19
2023-05-10T02:25:38.396Z,95177.09
2023-05-10T02:28:07.594Z,95166.59
2023-05-10T02:30:37.791Z,95182.03
2023-05-10T02:33:06.450Z,95192.13
2023-05-10T02:35:34.571Z,95195.81
2023-05-10T02:38:02.744Z,95187.19
2023-05-10T02:40:31.218Z,95185.94
2023-05-10T02:42:59.865Z,95186.03
2023-05-10T02:45:31.354Z,95187.28
2023-05-10T02:47:59.558Z,95179.88
2023-05-10T02:50:29.701Z,95180.88
2023-05-10T02:53:03.042Z,95168.81
2023-05-10T02:55:36.501Z,95182.69
2023-05-10T02:58:04.765Z,95182.53
2023-05-10T03:00:32.508Z,95176.00
2023-05-10T03:02:59.864Z,95180.69
2023-05-10T03:05:27.887Z,95185.19
2023-05-10T03:07:55.831Z,95185.50
2023-05-10T03:10:30.318Z,95188.16
2023-05-10T03:13:33.813Z,95181.50
2023-05-10T03:16:09.250Z,95186.75
2023-05-10T03:18:51.746Z,95194.09
2023-05-10T03:21:20.912Z,95196.28
2023-05-10T03:23:57.327Z,95200.03
2023-05-10T03:26:29.386Z,95196.13
2023-05-10T03:29:15.317Z,95194.69
2023-05-10T03:31:42.732Z,95195.84
2023-05-10T03:34:09.855Z,95202.50
2023-05-10T03:36:37.251Z,95201.13
2023-05-10T03:39:04.195Z,95199.97
2023-05-10T03:41:31.438Z,95203.94
2023-05-10T03:43:58.354Z,95208.22
2023-05-10T03:46:25.282Z,95200.41
2023-05-10T03:48:52.133Z,95209.94
2023-05-10T03:51:19.143Z,95206.03
2023-05-10T03:53:46.048Z,95207.66
2023-05-10T03:56:13.449Z,95216.78
2023-05-10T03:58:40.387Z,95204.78
2023-05-10T04:01:07.420Z,95208.31
2023-05-10T04:03:36.264Z,95216.13
2023-05-10T04:06:03.876Z,95224.47
2023-05-10T04:08:31.302Z,95231.88
2023-05-10T04:11:12.571Z,95226.25
2023-05-10T04:13:39.590Z,95226.25
2023-05-10T04:16:06.679Z,95237.59
2023-05-10T04:18:33.791Z,95231.94
2023-05-10T04:21:00.760Z,95229.50
2023-05-10T04:23:28.695Z,95227.91
2023-05-10T04:26:02.192Z,95220.16
2023-05-10T04:28:29.294Z,95212.06
2023-05-10T04:31:09.471Z,95225.78
2023-05-10T04:33:37.545Z,95217.22
2023-05-10T04:36:05.113Z,95215.38
2023-05-10T04:38:32.569Z,95234.88
2023-05-10T04:41:10.858Z,95234.13
2023-05-10T04:43:39.032Z,95231.75
2023-05-10T04:46:06.933Z,95208.97
2023-05-10T04:48:34.579Z,95226.47
2023-05-10T04:51:01.638Z,95231.25
2023-05-10T04:53:28.666Z,95223.56
2023-05-10T04:55:55.810Z,95216.41
2023-05-10T04:58:23.292Z,95231.94
2023-05-10T05:00:50.236Z,95233.34
2023-05-10T05:03:17.309Z,95234.28
2023-05-10T05:05:45.732Z,95239.69
2023-05-10T05:08:12.777Z,95230.94
2023-05-10T05:10:39.722Z,95241.00
2023-05-10T05:13:06.938Z,95235.72
2023-05-10T05:15:34.237Z,95244.50
2023-05-10T05:18:01.295Z,95239.00
2023-05-10T05:20:28.473Z,95235.56
2023-05-10T05:22:55.439Z,95243.13
2023-05-10T05:25:22.396Z,95241.06
2023-05-10T05:27:49.349Z,95248.56
2023-05-10T05:30:16.646Z,95245.22
2023-05-10T05:32:43.837Z,95237.38
2023-05-10T05:35:10.989Z,95232.25
2023-05-10T05:37:38.462Z,95249.31
2023-05-10T05:40:06.110Z,95256.72
2023-05-10T05:42:33.798Z,95244.53
2023-05-10T05:45:00.901Z,95248.00
2023-05-10T05:47:28.010Z,95253.44
2023-05-10T05:49:54.853Z,95250.06
2023-05-10T05:52:22.259Z,95263.38
2023-05-10T05:54:49.217Z,95255.69
2023-05-10T05:57:16.128Z,95264.47
2023-05-10T05:59:44.950Z,95261.94
2023-05-10T06:02:12.227Z,95254.16
2023-05-10T06:04:39.325Z,95265.31
2023-05-10T06:07:06.811Z,95252.78
2023-05-10T06:09:33.774Z,95246.25
2023-05-10T06:12:00.679Z,95267.06
2023-05-10T06:14:27.742Z,95267.78
2023-05-10T06:16:54.688Z,95268.56
2023-05-10T06:19:21.851Z,95277.66
2023-05-10T06:21:48.701Z,95273.28
2023-05-10T06:24:15.525Z,95276.16
2023-05-10T06:26:42.491Z,95266.22
2023-05-10T06:29:09.398Z,95279.28
2023-05-10T06:31:36.474Z,95277.81
2023-05-10T06:34:03.416Z,95279.78
2023-05-10T06:36:30.344Z,95279.69
2023-05-10T06:38:57.351Z,95270.22
2023-05-10T06:41:24.945Z,95274.66
2023-05-10T06:43:52.241Z,95275.72
2023-05-10T06:46:19.358Z,95281.84
2023-05-10T06:48:46.252Z,95287.06
2023-05-10T06:51:13.144Z,95272.84
2023-05-10T06:53:40.134Z,95270.88
2023-05-10T06:56:07.476Z,95277.50
2023-05-10T06:58:34.595Z,95268.13
2023-05-10T07:01:06.166Z,95282.03
2023-05-10T07:03:33.336Z,95279.72
2023-05-10T07:06:11.318Z,95260.72
2023-05-10T07:08:42.860Z,95280.72
2023-05-10T07:11:09.810Z,95288.38
2023-05-10T07:13:37.444Z,95246.41
2023-05-10T07:16:05.330Z,95288.34
2023-05-10T07:18:32.341Z,95276.50
2023-05-10T07:20:59.523Z,95281.47
2023-05-10T07:23:26.449Z,95297.88
2023-05-10T07:25:53.472Z,95288.97
2023-05-10T07:28:21.062Z,95292.44
2023-05-10T07:30:48.023Z,95292.91
2023-05-10T07:33:15.846Z,95300.53
2023-05-10T07:35:43.468Z,95293.72
2023-05-10T07:38:12.040Z,95290.28
2023-05-10T07:40:40.609Z,95301.66
2023-05-10T07:43:07.566Z,95312.75
2023-05-10T07:45:35.003Z,95301.63
2023-05-10T07:48:02.078Z,95302.91
2023-05-10T07:50:29.330Z,95292.94
2023-05-10T07:52:56.268Z,95298.63
2023-05-10T07:55:23.421Z,95297.13
2023-05-10T07:57:50.378Z,95265.38
2023-05-10T08:00:19.719Z,95310.22
2023-05-10T08:02:47.557Z,95305.47
2023-05-10T08:05:14.966Z,95307.56
2023-05-10T08:07:42.020Z,95305.25
2023-05-10T08:10:11.952Z,95299.53
2023-05-10T08:12:39.510Z,95315.66
2023-05-10T08:15:08.190Z,95308.97
2023-05-10T08:17:35.382Z,95300.81
2023-05-10T08:20:02.503Z,95300.69
2023-05-10T08:22:31.094Z,95310.66
2023-05-10T08:24:58.070Z,95315.84
2023-05-10T08:27:25.005Z,95303.81
2023-05-10T08:29:51.912Z,95305.28
2023-05-10T08:32:19.146Z,95312.22
2023-05-10T08:34:46.128Z,95303.03
2023-05-10T08:37:14.489Z,95303.25
2023-05-10T08:39:41.912Z,95307.25
2023-05-10T08:42:10.419Z,95312.56
2023-05-10T08:44:38.089Z,95308.06
2023-05-10T08:47:10.173Z,95306.75
2023-05-10T08:49:38.532Z,95306.19
2023-05-10T08:52:08.327Z,95309.25
2023-05-10T08:54:35.562Z,95308.06
2023-05-10T08:57:02.916Z,95304.66
2023-05-10T08:59:29.964Z,95302.56
2023-05-10T09:02:00.808Z,95311.91
2023-05-10T09:04:29.347Z,95309.28
2023-05-10T09:06:56.587Z,95308.00
2023-05-10T09:09:25.367Z,95309.16
2023-05-10T09:11:53.867Z,95310.22
2023-05-10T09:14:21.443Z,95298.75
2023-05-10T09:16:48.682Z,95300.50
2023-05-10T09:19:15.920Z,95297.94
2023-05-10T09:21:42.991Z,95296.75
2023-05-10T09:24:10.192Z,95298.25
2023-05-10T09:26:47.679Z,95255.72
2023-05-10T09:29:17.324Z,95304.81
2023-05-10T09:31:52.716Z,95296.06
2023-05-10T09:34:22.116Z,95298.50
2023-05-10T09:36:53.608Z,95300.53
2023-05-10T09:39:21.048Z,95288.78
2023-05-10T09:41:48.310Z,95304.06
2023-05-10T09:44:19.734Z,95299.31
2023-05-10T09:46:51.313Z,95293.00
2023-05-10T09:49:18.241Z,95291.41
2023-05-10T09:51:45.092Z,95290.31
2023-05-10T09:54:13.641Z,95295.19
2023-05-10T09:56:41.648Z,95286.59
2023-05-10T09:59:12.097Z,95287.50
2023-05-10T10:01:40.238Z,95283.63
2023-05-10T10:04:10.155Z,95284.03
2023-05-10T10:06:41.044Z,95267.09
2023-05-10T10:09:09.522Z,95276.66
2023-05-10T10:11:38.671Z,95280.44
2023-05-10T10:14:06.700Z,95273.25
2023-05-10T10:16:33.889Z,95272.03
2023-05-10T10:19:01.810Z,95264.25
2023-05-10T10:21:29.350Z,95267.25
2023-05-10T10:23:56.988Z,95265.72
2023-05-10T10:26:24.792Z,95272.59
2023-05-10T10:29:32.914Z,95274.00
2023-05-10T10:32:30.142Z,95276.25
2023-05-10T10:34:57.971Z,95264.59
2023-05-10T10:37:42.110Z,95271.88
2023-05-10T10:40:33.536Z,95272.66
2023-05-10T10:43:30.035Z,95264.31
2023-05-10T10:46:18.428Z,95270.22
2023-05-10T10:49:13.240Z,95271.63
2023-05-10T10:51:40.841Z,95272.59
2023-05-10T10:54:11.776Z,95270.22
2023-05-10T10:56:39.218Z,95273.16
2023-05-10T10:59:06.270Z,95266.91
2023-05-10T11:01:38.901Z,95266.72
2023-05-10T11:04:05.960Z,95266.25
2023-05-10T11:06:37.027Z,95253.31
2023-05-10T11:09:14.090Z,95263.00
2023-05-10T11:11:53.621Z,95264.75
2023-05-10T11:14:23.451Z,95257.47
2023-05-10T11:16:51.042Z,95261.16
2023-05-10T11:19:19.383Z,95262.06
2023-05-10T11:22:14.699Z,95268.94
2023-05-10T11:24:57.565Z,95273.50
2023-05-10T11:27:24.466Z,95271.78
2023-05-10T11:29:54.573Z,95265.09
2023-05-10T11:32:22.302Z,95270.94
2023-05-10T11:34:49.525Z,95275.59
2023-05-10T11:37:16.455Z,95274.75
2023-05-10T11:39:48.854Z,95270.56
2023-05-10T11:42:15.956Z,95275.06
2023-05-10T11:44:44.407Z,95279.88
2023-05-10T11:47:13.004Z,95263.97
2023-05-10T11:49:39.951Z,95272.91
2023-05-10T11:52:08.357Z,95267.31
2023-05-10T11:54:36.087Z,95267.44
2023-05-10T11:57:03.357Z,95268.56
2023-05-10T11:59:30.881Z,95266.84
2023-05-10T12:01:58.153Z,95263.22
2023-05-10T12:04:25.707Z,95260.56
2023-05-10T12:06:52.742Z,95245.53
2023-05-10T12:09:31.538Z,95257.72
2023-05-10T12:12:06.875Z,95255.63
2023-05-10T12:14:36.538Z,95261.56
2023-05-10T12:17:03.759Z,95257.94
2023-05-10T12:19:38.587Z,95253.78
2023-05-10T12:22:06.755Z,95247.22
2023-05-10T12:24:39.211Z,95250.06
2023-05-10T12:27:09.237Z,95243.47
2023-05-10T12:29:37.071Z,95251.31
2023-05-10T12:32:04.141Z,95219.50
2023-05-10T12:34:37.222Z,95249.88
2023-05-10T12:37:04.748Z,95236.06
2023-05-10T12:39:45.797Z,95240.47
2023-05-10T12:42:13.287Z,95234.69
2023-05-10T12:44:40.856Z,95236.88
2023-05-10T12:47:08.370Z,95227.84
2023-05-10T12:49:35.471Z,95227.53
2023-05-10T12:52:02.695Z,95235.50
2023-05-10T12:54:29.683Z,95223.63
2023-05-10T12:56:56.629Z,95228.34
2023-05-10T12:59:23.949Z,95211.97
2023-05-10T13:01:51.169Z,95229.66
2023-05-10T13:04:18.186Z,95213.19
2023-05-10T13:06:45.452Z,95216.22
2023-05-10T13:09:12.449Z,95221.31
2023-05-10T13:11:39.788Z,95219.53
2023-05-10T13:14:06.748Z,95211.72
2023-05-10T13:16:34.026Z,95216.09
2023-05-10T13:19:01.002Z,95201.00
2023-05-10T13:21:28.954Z,95207.56
2023-05-10T13:23:56.454Z,95204.53
2023-05-10T13:26:23.548Z,95199.72
2023-05-10T13:28:52.474Z,95204.09
2023-05-10T13:31:19.640Z,95191.72
2023-05-10T13:33:46.550Z,95205.59
2023-05-10T13:36:13.758Z,95197.31
2023-05-10T13:38:41.017Z,95198.69
2023-05-10T13:41:08.082Z,95189.53
2023-05-10T13:43:34.989Z,95180.47
2023-05-10T13:46:03.683Z,95187.44
2023-05-10T13:48:30.640Z,95186.69
2023-05-10T13:50:57.687Z,95191.34
2023-05-10T13:53:24.596Z,95177.84
2023-05-10T13:56:42.071Z,95190.72
2023-05-10T13:59:09.239Z,95187.31
2023-05-10T14:01:36.194Z,95194.75
2023-05-10T14:04:03.366Z,95186.13
2023-05-10T14:06:30.620Z,95179.22
2023-05-10T14:08:57.954Z,95172.41
2023-05-10T14:11:24.907Z,95181.84
2023-05-10T14:13:52.113Z,95189.22
2023-05-10T14:16:19.255Z,95182.78
2023-05-10T14:18:46.351Z,95188.59
2023-05-10T14:21:14.373Z,95185.97
2023-05-10T14:23:41.331Z,95188.59
2023-05-10T14:26:08.871Z,95187.97
2023-05-10T14:28:35.784Z,95191.53
2023-05-10T14:31:03.446Z,95181.44
2023-05-10T14:33:30.444Z,95185.44
2023-05-10T14:35:58.256Z,95186.38
2023-05-10T14:38:25.329Z,95176.06
2023-05-10T14:40:52.361Z,95187.78
2023-05-10T14:43:19.374Z,95180.63
2023-05-10T14:45:46.573Z,95170.25
2023-05-10T14:48:16.499Z,95169.75
2023-05-10T14:50:43.642Z,95182.19
2023-05-10T14:53:36.006Z,95193.00
2023-05-10T14:56:03.908Z,95191.03
2023-05-10T14:58:34.413Z,95192.34
2023-05-10T15:01:01.868Z,95191.72
2023-05-10T15:03:29.674Z,95182.50
2023-05-10T15:05:58.626Z,95175.84
2023-05-10T15:08:25.788Z,95181.75
2023-05-10T15:10:53.026Z,95176.66
2023-05-10T15:13:20.130Z,95176.50
2023-05-10T15:15:48.131Z,95165.81
2023-05-10T15:18:15.189Z,95174.16
2023-05-10T15:20:42.239Z,95165.50
2023-05-10T15:23:09.176Z,95148.91
2023-05-10T15:25:38.217Z,95144.69
2023-05-10T15:28:05.611Z,95164.09
2023-05-10T15:30:32.538Z,95156.41
2023-05-10T15:33:00.111Z,95146.13
2023-05-10T15:35:27.873Z,95151.69
2023-05-10T15:37:54.903Z,95157.13
2023-05-10T15:40:21.875Z,95160.22
2023-05-10T15:42:48.854Z,95154.13
2023-05-10T15:45:16.646Z,95148.34
2023-05-10T15:47:45.030Z,95162.63
2023-05-10T15:50:12.581Z,95159.09
2023-05-10T15:52:39.543Z,95151.31
2023-05-10T15:55:13.083Z,95160.06
2023-05-10T15:57:41.406Z,95152.28
2023-05-10T16:00:10.068Z,95156.91
2023-05-10T16:02:41.237Z,95154.31
2023-05-10T16:05:09.698Z,95156.47
2023-05-10T16:07:36.728Z,95159.91
2023-05-10T16:10:06.453Z,95160.53
2023-05-10T16:12:34.117Z,95162.09
2023-05-10T16:15:01.063Z,95162.50
2023-05-10T16:17:28.845Z,95161.34
2023-05-10T16:19:57.488Z,95164.69
2023-05-10T16:22:27.368Z,95162.00
2023-05-10T16:24:54.520Z,95167.94
2023-05-10T16:27:21.519Z,95152.97
2023-05-10T16:29:48.669Z,95146.56
2023-05-10T16:32:15.598Z,95162.69
2023-05-10T16:34:42.665Z,95161.69
2023-05-10T16:37:09.906Z,95167.22
2023-05-10T16:39:37.315Z,95162.84
2023-05-10T16:42:04.620Z,95163.16
2023-05-10T16:44:31.517Z,95163.03
2023-05-10T16:46:58.587Z,95171.09
2023-05-10T16:49:44.398Z,95167.47
2023-05-10T16:52:11.489Z,95164.13
2023-05-10T16:54:38.420Z,95170.59
2023-05-10T16:57:05.414Z,95174.03
2023-05-10T16:59:32.435Z,95171.91
2023-05-10T17:01:59.331Z,95171.41
2023-05-10T17:04:26.381Z,95168.69
2023-05-10T17:06:53.288Z,95174.03
2023-05-10T17:09:20.656Z,95174.19
2023-05-10T17:11:47.590Z,95175.78
2023-05-10T17:14:14.506Z,95180.56
2023-05-10T17:16:41.965Z,95161.47
2023-05-10T17:19:09.585Z,95171.50
2023-05-10T17:21:36.749Z,95170.28
2023-05-10T17:24:03.900Z,95175.88
2023-05-10T17:26:31.056Z,95172.56
2023-05-10T17:28:58.628Z,95176.91
2023-05-10T17:31:25.989Z,95177.81
2023-05-10T17:33:53.404Z,95182.75
2023-05-10T17:36:20.489Z,95183.41
2023-05-10T17:38:47.399Z,95182.44
2023-05-10T17:41:15.057Z,95186.63
2023-05-10T17:43:42.068Z,95184.03
2023-05-10T17:46:09.302Z,95187.94
2023-05-10T17:48:39.367Z,95188.41
2023-05-10T17:51:06.727Z,95193.88
2023-05-10T17:53:38.307Z,95193.88
2023-05-10T17:56:05.764Z,95200.78
2023-05-10T17:58:32.731Z,95205.84
2023-05-10T18:00:59.760Z,95205.91
2023-05-10T18:03:26.838Z,95201.72
2023-05-10T18:05:55.252Z,95206.97
2023-05-10T18:08:27.276Z,95209.09
2023-05-10T18:10:54.387Z,95211.47
2023-05-10T18:13:21.296Z,95217.84
2023-05-10T18:15:48.395Z,95213.22
2023-05-10T18:18:15.404Z,95215.66
2023-05-10T18:23:27.129Z,95225.41
2023-05-10T18:25:54.170Z,95229.00
2023-05-10T18:28:21.118Z,95237.94
2023-05-10T18:30:48.100Z,95230.75
2023-05-10T18:33:15.184Z,95193.22
2023-05-10T18:35:42.390Z,95230.97
2023-05-10T18:38:12.556Z,95237.94
2023-05-10T18:40:40.362Z,95244.38
2023-05-10T18:43:07.623Z,95240.19
2023-05-10T18:45:35.014Z,95244.81
2023-05-10T18:48:01.979Z,95249.19
2023-05-10T18:50:29.195Z,95244.44
2023-05-10T18:52:56.664Z,95247.00
2023-05-10T18:55:26.846Z,95245.63
2023-05-10T18:57:53.838Z,95239.63
2023-05-10T19:00:20.773Z,95227.59
2023-05-10T19:02:47.902Z,95238.22
2023-05-10T19:05:15.385Z,95242.97
2023-05-10T19:07:43.943Z,95248.53
2023-05-10T19:10:12.984Z,95244.47
2023-05-10T19:12:41.822Z,95241.09
2023-05-10T19:15:10.475Z,95250.06
2023-05-10T19:17:38.947Z,95226.75
2023-05-10T19:20:06.977Z,95240.78
2023-05-10T19:22:47.185Z,95243.44
2023-05-10T19:25:22.029Z,95248.94
2023-05-10T19:27:48.920Z,95245.66
2023-05-10T19:30:16.085Z,95252.78
2023-05-10T19:32:44.231Z,95250.81
2023-05-10T19:35:13.777Z,95259.06
2023-05-10T19:37:40.707Z,95253.47
2023-05-10T19:40:09.503Z,95253.47
2023-05-10T19:42:36.508Z,95246.22
2023-05-10T19:45:03.869Z,95251.78
2023-05-10T19:47:31.070Z,95249.66
2023-05-10T19:49:58.193Z,95249.38
2023-05-10T19:52:25.333Z,95226.78
2023-05-10T19:54:52.137Z,95239.31
2023-05-10T19:57:19.144Z,95234.16
2023-05-10T19:59:46.131Z,95234.97
2023-05-10T20:02:13.018Z,95239.44
2023-05-10T20:04:40.103Z,95233.19
2023-05-10T20:07:10.991Z,95233.56
2023-05-10T20:09:37.886Z,95223.94
2023-05-10T20:12:04.973Z,95233.91
2023-05-10T20:14:32.004Z,95234.97
2023-05-10T20:16:58.952Z,95230.44
2023-05-10T20:19:26.175Z,95232.88
2023-05-10T20:21:56.024Z,95230.72
2023-05-10T20:24:23.088Z,95224.75
2023-05-10T20:26:49.972Z,95219.25
2023-05-10T20:29:16.904Z,95242.44
2023-05-10T20:31:43.909Z,95237.81
2023-05-10T20:34:11.681Z,95240.59
2023-05-10T20:36:39.034Z,95234.28
2023-05-10T20:39:05.989Z,95239.78
2023-05-10T20:41:33.072Z,95234.75
2023-05-10T20:44:00.600Z,95239.72
2023-05-10T20:46:27.685Z,95232.19
2023-05-10T20:48:54.721Z,95235.19
2023-05-10T20:51:21.926Z,95236.47
2023-05-10T20:53:48.775Z,95236.13
2023-05-10T20:56:16.029Z,95229.22
2023-05-10T20:58:43.088Z,95231.06
2023-05-10T21:01:10.572Z,95232.81
2023-05-10T21:03:37.535Z,95231.84
2023-05-10T21:06:04.661Z,95226.31
2023-05-10T21:08:31.527Z,95232.31
2023-05-10T21:10:59.268Z,95233.00
2023-05-10T21:13:26.209Z,95227.25
2023-05-10T21:15:53.230Z,95230.94
2023-05-10T21:18:20.263Z,95229.50
2023-05-10T21:20:47.563Z,95227.47
2023-05-10T21:23:14.504Z,95232.31
2023-05-10T21:25:41.573Z,95232.22
2023-05-10T21:28:08.479Z,95227.13
2023-05-10T21:30:35.461Z,95229.81
2023-05-10T21:33:03.632Z,95231.22
2023-05-10T21:35:31.644Z,95219.13
2023-05-10T21:37:58.694Z,95218.72
2023-05-10T21:40:25.674Z,95224.84
2023-05-10T21:42:52.679Z,95222.19
2023-05-10T21:45:20.149Z,95217.56
2023-05-10T21:47:47.184Z,95226.78
2023-05-10T21:50:14.225Z,95223.31
2023-05-10T21:52:41.172Z,95228.34
2023-05-10T21:55:08.689Z,95223.22
2023-05-10T21:57:36.724Z,95224.84
2023-05-10T22:00:03.871Z,95224.69
2023-05-10T22:02:33.921Z,95227.25
2023-05-10T22:05:02.192Z,95211.84
2023-05-10T22:07:32.348Z,95213.63
2023-05-10T22:09:59.596Z,95211.47
2023-05-10T22:12:27.068Z,95215.00
2023-05-10T22:15:06.405Z,95222.41
2023-05-10T22:17:39.301Z,95222.41
2023-05-10T22:20:08.493Z,95218.22
2023-05-10T22:22:36.757Z,95217.31
2023-05-10T22:25:07.951Z,95216.59
2023-05-10T22:27:35.182Z,95216.38
2023-05-10T22:30:02.847Z,95225.09
2023-05-10T22:32:35.382Z,95225.31
2023-05-10T22:35:02.470Z,95219.19
2023-05-10T22:37:32.073Z,95216.84
2023-05-10T22:39:58.958Z,95205.09
2023-05-10T22:42:25.841Z,95207.25
2023-05-10T22:44:52.721Z,95206.44
2023-05-10T22:47:19.664Z,95204.81
2023-05-10T22:49:47.039Z,95208.91
2023-05-10T22:52:14.076Z,95204.59
2023-05-10T22:54:41.019Z,95207.41
2023-05-10T22:57:07.999Z,95199.41
2023-05-10T22:59:34.974Z,95201.34
2023-05-10T23:02:02.085Z,95177.16
2023-05-10T23:04:29.116Z,95199.47
2023-05-10T23:06:56.089Z,95190.34
2023-05-10T23:09:23.112Z,95196.38
2023-05-10T23:11:50.109Z,95180.41
2023-05-10T23:14:17.074Z,95193.59
2023-05-10T23:16:44.095Z,95193.38
2023-05-10T23:19:11.163Z,95191.28
2023-05-10T23:21:38.053Z,95178.53
2023-05-10T23:24:06.249Z,95188.63
2023-05-10T23:26:33.160Z,95190.63
2023-05-10T23:29:01.777Z,95181.34
2023-05-10T23:31:28.719Z,95179.00
2023-05-10T23:33:56.100Z,95177.16
2023-05-10T23:36:22.953Z,95184.09
2023-05-10T23:38:50.101Z,95175.34
2023-05-10T23:41:17.054Z,95180.91
2023-05-10T23:43:44.230Z,95031.47
2023-05-10T23:46:11.422Z,95178.00
2023-05-10T23:48:38.411Z,95191.31
2023-05-10T23:51:05.478Z,95180.47
2023-05-10T23:53:32.345Z,95185.22
2023-05-10T23:55:59.379Z,95178.03
2023-05-10T23:58:26.301Z,95177.22
